sensor_id;sensor_type;location;lat;lon;timestamp;pressure;altitude;pressure_sealevel;temperature;humidity
7888;BME280;3989;48.810;9.208;2022-10-04T00:01:51;99585.91;;;6.16;100.00
7888;BME280;3989;48.810;9.208;2022-10-04T00:04:22;99537.81;;;5.79;100.00
7888;BME280;3989;48.810;9.208;2022-10-04T00:06:55;99586.69;;;6.07;100.00
7888;BME280;3989;48.810;9.208;2022-10-04T00:09:27;99581.94;;;6.01;100.00
7888;BME280;3989;48.810;9.208;2022-10-04T00:11:56;99503.72;;;5.44;100.00
7888;BME280;3989;48.810;9.208;2022-10-04T00:14:26;99563.94;;;5.83;100.00
7888;BME280;3989;48.810;9.208;2022-10-04T00:16:55;99584.84;;;5.98;100.00
7888;BME280;3989;48.810;9.208;2022-10-04T00:19:36;99581.50;;;6.05;100.00
7888;BME280;3989;48.810;9.208;2022-10-04T00:22:20;99570.22;;;6.03;100.00
7888;BME280;3989;48.810;9.208;2022-10-04T00:25:15;99549.84;;;5.83;100.00
7888;BME280;3989;48.810;9.208;2022-10-04T00:31:20;99570.97;;;5.73;100.00
7888;BME280;3989;48.810;9.208;2022-10-04T00:33:51;99575.88;;;5.78;100.00
7888;BME280;3989;48.810;9.208;2022-10-04T00:36:37;99569.34;;;5.82;100.00
7888;BME280;3989;48.810;9.208;2022-10-04T00:39:25;99569.59;;;5.79;100.00
7888;BME280;3989;48.810;9.208;2022-10-04T00:44:53;99571.56;;;5.77;100.00
7888;BME280;3989;48.810;9.208;2022-10-04T00:47:26;99565.78;;;5.72;100.00
7888;BME280;3989;48.810;9.208;2022-10-04T00:50:02;99555.84;;;5.64;100.00
7888;BME280;3989;48.810;9.208;2022-10-04T00:52:33;99547.59;;;5.58;100.00
7888;BME280;3989;48.810;9.208;2022-10-04T00:55:06;99565.28;;;5.57;100.00
7888;BME280;3989;48.810;9.208;2022-10-04T00:57:38;99501.19;;;5.22;100.00
7888;BME280;3989;48.810;9.208;2022-10-04T01:00:10;99560.34;;;5.53;100.00
7888;BME280;3989;48.810;9.208;2022-10-04T01:02:47;99560.25;;;5.54;100.00
7888;BME280;3989;48.810;9.208;2022-10-04T01:05:18;99554.00;;;5.55;100.00
7888;BME280;3989;48.810;9.208;2022-10-04T01:07:48;99515.09;;;5.35;100.00
7888;BME280;3989;48.810;9.208;2022-10-04T01:10:19;99546.75;;;5.57;100.00
7888;BME280;3989;48.810;9.208;2022-10-04T01:12:52;99545.97;;;5.66;100.00
7888;BME280;3989;48.810;9.208;2022-10-04T01:15:25;99520.97;;;5.59;100.00
7888;BME280;3989;48.810;9.208;2022-10-04T01:18:12;99549.19;;;5.70;100.00
7888;BME280;3989;48.810;9.208;2022-10-04T01:20:48;99548.59;;;5.66;100.00
7888;BME280;3989;48.810;9.208;2022-10-04T01:26:39;99530.09;;;5.46;100.00
7888;BME280;3989;48.810;9.208;2022-10-04T01:29:09;99550.53;;;5.44;100.00
7888;BME280;3989;48.810;9.208;2022-10-04T01:31:37;99537.31;;;5.44;100.00
7888;BME280;3989;48.810;9.208;2022-10-04T01:34:04;99540.78;;;5.44;100.00
7888;BME280;3989;48.810;9.208;2022-10-04T01:36:32;99498.28;;;5.25;100.00
7888;BME280;3989;48.810;9.208;2022-10-04T01:38:59;99491.00;;;5.17;100.00
7888;BME280;3989;48.810;9.208;2022-10-04T01:41:28;99534.13;;;5.29;100.00
7888;BME280;3989;48.810;9.208;2022-10-04T01:44:00;99488.00;;;4.90;100.00
7888;BME280;3989;48.810;9.208;2022-10-04T01:46:32;99536.38;;;5.13;100.00
7888;BME280;3989;48.810;9.208;2022-10-04T01:49:02;99521.09;;;5.16;100.00
7888;BME280;3989;48.810;9.208;2022-10-04T01:51:33;99492.84;;;5.06;100.00
7888;BME280;3989;48.810;9.208;2022-10-04T01:54:05;99491.97;;;5.16;100.00
7888;BME280;3989;48.810;9.208;2022-10-04T01:56:38;99473.81;;;5.12;100.00
7888;BME280;3989;48.810;9.208;2022-10-04T01:59:14;99502.69;;;5.36;100.00
7888;BME280;3989;48.810;9.208;2022-10-04T02:01:44;99452.13;;;4.97;100.00
7888;BME280;3989;48.810;9.208;2022-10-04T02:04:16;99347.56;;;4.41;100.00
7888;BME280;3989;48.810;9.208;2022-10-04T02:06:45;99509.28;;;5.41;100.00
7888;BME280;3989;48.810;9.208;2022-10-04T02:09:17;99506.53;;;5.43;100.00
7888;BME280;3989;48.810;9.208;2022-10-04T02:11:48;99447.28;;;5.02;100.00
7888;BME280;3989;48.810;9.208;2022-10-04T02:14:21;99487.28;;;5.20;100.00
7888;BME280;3989;48.810;9.208;2022-10-04T02:16:50;99427.13;;;4.69;100.00
7888;BME280;3989;48.810;9.208;2022-10-04T02:19:18;99506.06;;;5.17;100.00
7888;BME280;3989;48.810;9.208;2022-10-04T02:21:46;99507.97;;;5.15;100.00
7888;BME280;3989;48.810;9.208;2022-10-04T02:24:14;99467.75;;;5.00;100.00
7888;BME280;3989;48.810;9.208;2022-10-04T02:26:41;99499.78;;;5.18;100.00
7888;BME280;3989;48.810;9.208;2022-10-04T02:29:08;99453.72;;;4.89;100.00
7888;BME280;3989;48.810;9.208;2022-10-04T02:31:38;99425.22;;;4.71;100.00
7888;BME280;3989;48.810;9.208;2022-10-04T02:34:22;99433.06;;;4.83;100.00
7888;BME280;3989;48.810;9.208;2022-10-04T02:36:49;99445.28;;;4.95;100.00
7888;BME280;3989;48.810;9.208;2022-10-04T02:39:20;99477.31;;;5.12;100.00
7888;BME280;3989;48.810;9.208;2022-10-04T02:41:50;99468.28;;;4.94;100.00
7888;BME280;3989;48.810;9.208;2022-10-04T02:44:21;99457.47;;;4.86;100.00
7888;BME280;3989;48.810;9.208;2022-10-04T02:46:55;99408.84;;;4.46;100.00
7888;BME280;3989;48.810;9.208;2022-10-04T02:49:28;99430.97;;;4.65;100.00
7888;BME280;3989;48.810;9.208;2022-10-04T02:51:59;99479.06;;;4.91;100.00
7888;BME280;3989;48.810;9.208;2022-10-04T02:54:30;99483.41;;;4.92;100.00
7888;BME280;3989;48.810;9.208;2022-10-04T02:56:59;99423.34;;;4.51;100.00
7888;BME280;3989;48.810;9.208;2022-10-04T02:59:27;99482.19;;;4.96;100.00
7888;BME280;3989;48.810;9.208;2022-10-04T03:01:58;99482.63;;;5.01;100.00
7888;BME280;3989;48.810;9.208;2022-10-04T03:04:27;99459.41;;;4.84;100.00
7888;BME280;3989;48.810;9.208;2022-10-04T03:06:55;99439.25;;;4.72;100.00
7888;BME280;3989;48.810;9.208;2022-10-04T03:09:23;99443.06;;;4.79;100.00
7888;BME280;3989;48.810;9.208;2022-10-04T03:11:50;99447.66;;;4.77;100.00
7888;BME280;3989;48.810;9.208;2022-10-04T03:14:19;99482.78;;;5.00;100.00
7888;BME280;3989;48.810;9.208;2022-10-04T03:16:49;99482.91;;;4.98;100.00
7888;BME280;3989;48.810;9.208;2022-10-04T03:19:21;99442.09;;;4.80;100.00
7888;BME280;3989;48.810;9.208;2022-10-04T03:21:50;99469.41;;;5.01;100.00
7888;BME280;3989;48.810;9.208;2022-10-04T03:24:21;99460.66;;;5.01;100.00
7888;BME280;3989;48.810;9.208;2022-10-04T03:26:51;99375.44;;;4.45;100.00
7888;BME280;3989;48.810;9.208;2022-10-04T03:29:18;99416.16;;;4.74;100.00
7888;BME280;3989;48.810;9.208;2022-10-04T03:31:48;99460.25;;;5.05;100.00
7888;BME280;3989;48.810;9.208;2022-10-04T03:34:17;99438.34;;;4.94;100.00
7888;BME280;3989;48.810;9.208;2022-10-04T03:36:47;99458.47;;;5.06;100.00
7888;BME280;3989;48.810;9.208;2022-10-04T03:39:19;99466.50;;;5.04;100.00
7888;BME280;3989;48.810;9.208;2022-10-04T03:41:50;99298.38;;;3.97;100.00
7888;BME280;3989;48.810;9.208;2022-10-04T03:44:18;99460.69;;;4.90;100.00
7888;BME280;3989;48.810;9.208;2022-10-04T03:46:46;99465.63;;;4.94;100.00
7888;BME280;3989;48.810;9.208;2022-10-04T03:49:16;99287.47;;;3.90;100.00
7888;BME280;3989;48.810;9.208;2022-10-04T03:51:47;99465.38;;;4.97;100.00
7888;BME280;3989;48.810;9.208;2022-10-04T03:54:16;99436.69;;;4.82;100.00
7888;BME280;3989;48.810;9.208;2022-10-04T03:56:44;99455.25;;;4.91;100.00
7888;BME280;3989;48.810;9.208;2022-10-04T03:59:14;99465.47;;;4.96;100.00
7888;BME280;3989;48.810;9.208;2022-10-04T04:01:44;99462.13;;;4.94;100.00
7888;BME280;3989;48.810;9.208;2022-10-04T04:04:18;99375.69;;;4.42;100.00
7888;BME280;3989;48.810;9.208;2022-10-04T04:06:56;99467.03;;;4.98;100.00
7888;BME280;3989;48.810;9.208;2022-10-04T04:09:36;99465.22;;;4.99;100.00
7888;BME280;3989;48.810;9.208;2022-10-04T04:12:08;99447.03;;;4.85;100.00
7888;BME280;3989;48.810;9.208;2022-10-04T04:14:38;99421.13;;;4.67;100.00
7888;BME280;3989;48.810;9.208;2022-10-04T04:17:27;99468.97;;;4.96;100.00
7888;BME280;3989;48.810;9.208;2022-10-04T04:19:57;99336.16;;;4.08;100.00
7888;BME280;3989;48.810;9.208;2022-10-04T04:22:26;99402.78;;;4.55;100.00
7888;BME280;3989;48.810;9.208;2022-10-04T04:24:57;99409.19;;;4.73;100.00
7888;BME280;3989;48.810;9.208;2022-10-04T04:27:25;99411.34;;;4.79;100.00
7888;BME280;3989;48.810;9.208;2022-10-04T04:29:54;99428.53;;;5.05;100.00
7888;BME280;3989;48.810;9.208;2022-10-04T04:32:22;99446.16;;;5.16;100.00
7888;BME280;3989;48.810;9.208;2022-10-04T04:34:57;99448.22;;;5.12;100.00
7888;BME280;3989;48.810;9.208;2022-10-04T04:37:26;99424.78;;;5.08;100.00
7888;BME280;3989;48.810;9.208;2022-10-04T04:39:52;99426.91;;;5.14;100.00
7888;BME280;3989;48.810;9.208;2022-10-04T04:42:22;99446.06;;;5.27;100.00
7888;BME280;3989;48.810;9.208;2022-10-04T04:44:53;99430.06;;;5.08;100.00
7888;BME280;3989;48.810;9.208;2022-10-04T04:47:27;99418.25;;;4.91;100.00
7888;BME280;3989;48.810;9.208;2022-10-04T04:49:57;99460.53;;;5.02;100.00
7888;BME280;3989;48.810;9.208;2022-10-04T04:52:30;99442.88;;;4.92;100.00
7888;BME280;3989;48.810;9.208;2022-10-04T04:54:57;99454.78;;;4.97;100.00
7888;BME280;3989;48.810;9.208;2022-10-04T04:57:25;99461.72;;;4.98;100.00
7888;BME280;3989;48.810;9.208;2022-10-04T04:59:54;99470.50;;;4.99;100.00
7888;BME280;3989;48.810;9.208;2022-10-04T05:02:27;99476.41;;;5.02;100.00
7888;BME280;3989;48.810;9.208;2022-10-04T05:05:19;99479.38;;;5.09;100.00
7888;BME280;3989;48.810;9.208;2022-10-04T05:07:48;99422.31;;;4.74;100.00
7888;BME280;3989;48.810;9.208;2022-10-04T05:10:28;99488.41;;;5.06;100.00
7888;BME280;3989;48.810;9.208;2022-10-04T05:12:56;99485.63;;;5.08;100.00
7888;BME280;3989;48.810;9.208;2022-10-04T05:15:24;99455.41;;;4.90;100.00
7888;BME280;3989;48.810;9.208;2022-10-04T05:17:52;99487.91;;;5.12;100.00
7888;BME280;3989;48.810;9.208;2022-10-04T05:20:18;99492.22;;;5.13;100.00
7888;BME280;3989;48.810;9.208;2022-10-04T05:22:48;99463.69;;;4.96;100.00
7888;BME280;3989;48.810;9.208;2022-10-04T05:25:24;99452.50;;;4.93;100.00
7888;BME280;3989;48.810;9.208;2022-10-04T05:27:52;99468.81;;;4.98;100.00
7888;BME280;3989;48.810;9.208;2022-10-04T05:30:32;99463.69;;;4.96;100.00
7888;BME280;3989;48.810;9.208;2022-10-04T05:33:04;99486.03;;;5.24;100.00
7888;BME280;3989;48.810;9.208;2022-10-04T05:35:41;99265.59;;;3.99;100.00
7888;BME280;3989;48.810;9.208;2022-10-04T05:38:14;99464.84;;;5.24;100.00
7888;BME280;3989;48.810;9.208;2022-10-04T05:40:50;99431.69;;;5.20;100.00
7888;BME280;3989;48.810;9.208;2022-10-04T05:43:27;99491.63;;;5.72;100.00
7888;BME280;3989;48.810;9.208;2022-10-04T05:46:17;99480.13;;;5.82;100.00
7888;BME280;3989;48.810;9.208;2022-10-04T05:48:52;99469.94;;;5.78;100.00
7888;BME280;3989;48.810;9.208;2022-10-04T05:51:22;99475.63;;;5.94;100.00
7888;BME280;3989;48.810;9.208;2022-10-04T05:53:51;99410.22;;;5.64;100.00
7888;BME280;3989;48.810;9.208;2022-10-04T05:56:34;99394.41;;;5.53;100.00
7888;BME280;3989;48.810;9.208;2022-10-04T05:59:17;99479.00;;;6.06;100.00
7888;BME280;3989;48.810;9.208;2022-10-04T06:01:55;99342.16;;;5.25;100.00
7888;BME280;3989;48.810;9.208;2022-10-04T06:04:39;99475.56;;;6.15;100.00
7888;BME280;3989;48.810;9.208;2022-10-04T06:07:17;99459.81;;;6.13;100.00
7888;BME280;3989;48.810;9.208;2022-10-04T06:10:02;99471.72;;;6.28;100.00
7888;BME280;3989;48.810;9.208;2022-10-04T06:12:41;99477.59;;;6.42;100.00
7888;BME280;3989;48.810;9.208;2022-10-04T06:15:35;99438.38;;;6.26;100.00
7888;BME280;3989;48.810;9.208;2022-10-04T06:18:33;99472.91;;;6.55;100.00
7888;BME280;3989;48.810;9.208;2022-10-04T06:21:15;99399.00;;;6.21;100.00
7888;BME280;3989;48.810;9.208;2022-10-04T06:23:49;99430.19;;;6.48;100.00
7888;BME280;3989;48.810;9.208;2022-10-04T06:26:21;99358.94;;;6.05;100.00
7888;BME280;3989;48.810;9.208;2022-10-04T06:28:52;99461.63;;;6.62;100.00
7888;BME280;3989;48.810;9.208;2022-10-04T06:31:52;99396.38;;;6.31;100.00
7888;BME280;3989;48.810;9.208;2022-10-04T06:37:43;99491.78;;;6.90;100.00
7888;BME280;3989;48.810;9.208;2022-10-04T06:40:42;99481.31;;;6.98;100.00
7888;BME280;3989;48.810;9.208;2022-10-04T06:43:33;99464.56;;;6.98;100.00
7888;BME280;3989;48.810;9.208;2022-10-04T06:46:07;99477.00;;;7.26;100.00
7888;BME280;3989;48.810;9.208;2022-10-04T06:49:08;99475.44;;;7.43;100.00
7888;BME280;3989;48.810;9.208;2022-10-04T06:51:48;99478.47;;;7.57;100.00
7888;BME280;3989;48.810;9.208;2022-10-04T06:54:33;99434.75;;;7.42;100.00
7888;BME280;3989;48.810;9.208;2022-10-04T06:57:16;99466.84;;;7.68;100.00
7888;BME280;3989;48.810;9.208;2022-10-04T07:00:02;99466.00;;;7.77;100.00
7888;BME280;3989;48.810;9.208;2022-10-04T07:02:37;99487.06;;;7.98;100.00
7888;BME280;3989;48.810;9.208;2022-10-04T07:05:12;99486.91;;;7.99;100.00
7888;BME280;3989;48.810;9.208;2022-10-04T07:07:42;99445.97;;;7.82;100.00
7888;BME280;3989;48.810;9.208;2022-10-04T07:10:24;99472.97;;;8.15;100.00
7888;BME280;3989;48.810;9.208;2022-10-04T07:13:04;99477.03;;;8.19;100.00
7888;BME280;3989;48.810;9.208;2022-10-04T07:15:49;99451.16;;;8.11;100.00
7888;BME280;3989;48.810;9.208;2022-10-04T07:18:22;99473.22;;;8.21;100.00
7888;BME280;3989;48.810;9.208;2022-10-04T07:20:57;99489.41;;;8.37;100.00
7888;BME280;3989;48.810;9.208;2022-10-04T07:23:30;99444.88;;;8.12;100.00
7888;BME280;3989;48.810;9.208;2022-10-04T07:26:02;99453.94;;;8.19;100.00
7888;BME280;3989;48.810;9.208;2022-10-04T07:28:33;99493.84;;;8.47;100.00
7888;BME280;3989;48.810;9.208;2022-10-04T07:31:26;99328.25;;;7.45;100.00
7888;BME280;3989;48.810;9.208;2022-10-04T07:33:55;99499.88;;;8.49;100.00
7888;BME280;3989;48.810;9.208;2022-10-04T07:36:25;99419.25;;;8.11;100.00
7888;BME280;3989;48.810;9.208;2022-10-04T07:38:55;99358.94;;;7.94;100.00
7888;BME280;3989;48.810;9.208;2022-10-04T07:41:28;99490.69;;;8.88;100.00
7888;BME280;3989;48.810;9.208;2022-10-04T07:43:59;99482.22;;;8.92;100.00
7888;BME280;3989;48.810;9.208;2022-10-04T07:49:36;99507.34;;;9.25;100.00
7888;BME280;3989;48.810;9.208;2022-10-04T07:52:28;99383.75;;;8.75;100.00
7888;BME280;3989;48.810;9.208;2022-10-04T07:55:07;99444.88;;;9.20;100.00
7888;BME280;3989;48.810;9.208;2022-10-04T07:57:45;99411.97;;;9.29;100.00
7888;BME280;3989;48.810;9.208;2022-10-04T08:00:18;99274.34;;;8.60;100.00
7888;BME280;3989;48.810;9.208;2022-10-04T08:02:57;99386.31;;;9.28;100.00
7888;BME280;3989;48.810;9.208;2022-10-04T08:05:35;99423.75;;;9.70;100.00
7888;BME280;3989;48.810;9.208;2022-10-04T08:11:14;99414.38;;;10.17;100.00
7888;BME280;3989;48.810;9.208;2022-10-04T08:14:19;99516.78;;;10.74;100.00
7888;BME280;3989;48.810;9.208;2022-10-04T08:17:00;99492.25;;;10.63;100.00
7888;BME280;3989;48.810;9.208;2022-10-04T08:19:41;99513.00;;;10.85;100.00
7888;BME280;3989;48.810;9.208;2022-10-04T08:22:30;99393.53;;;10.21;100.00
7888;BME280;3989;48.810;9.208;2022-10-04T08:25:04;99408.06;;;10.26;100.00
7888;BME280;3989;48.810;9.208;2022-10-04T08:27:52;99487.28;;;10.76;100.00
7888;BME280;3989;48.810;9.208;2022-10-04T08:30:59;99493.44;;;10.76;100.00
7888;BME280;3989;48.810;9.208;2022-10-04T08:33:53;99356.91;;;9.97;100.00
7888;BME280;3989;48.810;9.208;2022-10-04T08:36:31;99491.47;;;10.86;100.00
7888;BME280;3989;48.810;9.208;2022-10-04T08:39:09;99362.63;;;10.10;100.00
7888;BME280;3989;48.810;9.208;2022-10-04T08:45:39;99450.13;;;11.15;100.00
7888;BME280;3989;48.810;9.208;2022-10-04T08:48:49;99342.56;;;10.40;100.00
7888;BME280;3989;48.810;9.208;2022-10-04T09:00:39;99470.81;;;11.13;100.00
7888;BME280;3989;48.810;9.208;2022-10-04T09:03:51;99514.59;;;11.68;100.00
7888;BME280;3989;48.810;9.208;2022-10-04T09:06:42;99508.59;;;11.82;100.00
7888;BME280;3989;48.810;9.208;2022-10-04T09:09:45;99520.25;;;12.05;100.00
7888;BME280;3989;48.810;9.208;2022-10-04T09:15:50;99502.88;;;12.56;100.00
7888;BME280;3989;48.810;9.208;2022-10-04T09:18:29;99490.56;;;12.70;100.00
7888;BME280;3989;48.810;9.208;2022-10-04T09:21:08;99411.94;;;12.40;100.00
7888;BME280;3989;48.810;9.208;2022-10-04T09:24:19;99488.75;;;13.01;100.00
7888;BME280;3989;48.810;9.208;2022-10-04T09:26:59;99485.28;;;13.24;100.00
7888;BME280;3989;48.810;9.208;2022-10-04T09:29:51;99453.72;;;13.11;100.00
7888;BME280;3989;48.810;9.208;2022-10-04T09:32:42;99486.03;;;13.55;100.00
7888;BME280;3989;48.810;9.208;2022-10-04T09:35:41;99463.72;;;13.54;100.00
7888;BME280;3989;48.810;9.208;2022-10-04T09:38:54;99469.16;;;13.84;100.00
7888;BME280;3989;48.810;9.208;2022-10-04T09:41:32;99438.28;;;13.88;100.00
7888;BME280;3989;48.810;9.208;2022-10-04T09:44:28;99483.81;;;14.25;100.00
7888;BME280;3989;48.810;9.208;2022-10-04T09:47:14;99449.47;;;14.20;100.00
7888;BME280;3989;48.810;9.208;2022-10-04T09:50:06;99466.25;;;14.52;100.00
7888;BME280;3989;48.810;9.208;2022-10-04T09:52:44;99445.69;;;14.44;100.00
7888;BME280;3989;48.810;9.208;2022-10-04T09:55:33;99436.81;;;14.44;100.00
7888;BME280;3989;48.810;9.208;2022-10-04T09:58:30;99459.47;;;14.56;100.00
7888;BME280;3989;48.810;9.208;2022-10-04T10:01:11;99470.25;;;14.77;100.00
7888;BME280;3989;48.810;9.208;2022-10-04T10:03:54;99320.75;;;13.98;100.00
7888;BME280;3989;48.810;9.208;2022-10-04T10:09:30;99460.06;;;14.87;100.00
7888;BME280;3989;48.810;9.208;2022-10-04T10:12:34;99453.53;;;14.96;100.00
7888;BME280;3989;48.810;9.208;2022-10-04T10:15:29;99425.44;;;14.78;100.00
7888;BME280;3989;48.810;9.208;2022-10-04T10:18:07;99466.16;;;15.17;100.00
7888;BME280;3989;48.810;9.208;2022-10-04T10:20:52;99480.44;;;15.17;100.00
7888;BME280;3989;48.810;9.208;2022-10-04T10:23:53;99449.22;;;14.81;100.00
7888;BME280;3989;48.810;9.208;2022-10-04T10:26:34;99471.59;;;15.02;100.00
7888;BME280;3989;48.810;9.208;2022-10-04T10:32:17;99321.34;;;14.44;100.00
7888;BME280;3989;48.810;9.208;2022-10-04T10:35:11;99475.66;;;15.55;100.00
7888;BME280;3989;48.810;9.208;2022-10-04T10:37:51;99477.91;;;15.73;100.00
7888;BME280;3989;48.810;9.208;2022-10-04T10:40:35;99363.66;;;15.27;100.00
7888;BME280;3989;48.810;9.208;2022-10-04T10:43:30;99467.50;;;15.98;100.00
7888;BME280;3989;48.810;9.208;2022-10-04T10:46:10;99468.41;;;16.05;100.00
7888;BME280;3989;48.810;9.208;2022-10-04T10:49:02;99413.38;;;15.58;100.00
7888;BME280;3989;48.810;9.208;2022-10-04T10:51:57;99434.06;;;15.79;100.00
7888;BME280;3989;48.810;9.208;2022-10-04T10:54:57;99462.56;;;16.01;100.00
7888;BME280;3989;48.810;9.208;2022-10-04T10:57:53;99421.78;;;15.70;100.00
7888;BME280;3989;48.810;9.208;2022-10-04T11:00:40;99432.94;;;15.67;100.00
7888;BME280;3989;48.810;9.208;2022-10-04T11:03:38;99461.34;;;15.76;100.00
7888;BME280;3989;48.810;9.208;2022-10-04T11:06:25;99456.03;;;15.83;100.00
7888;BME280;3989;48.810;9.208;2022-10-04T11:12:15;99455.19;;;16.51;100.00
7888;BME280;3989;48.810;9.208;2022-10-04T11:18:12;99430.03;;;16.78;100.00
7888;BME280;3989;48.810;9.208;2022-10-04T11:21:00;99445.03;;;17.07;100.00
7888;BME280;3989;48.810;9.208;2022-10-04T11:26:53;99446.50;;;17.22;100.00
7888;BME280;3989;48.810;9.208;2022-10-04T11:29:35;99433.44;;;17.26;100.00
7888;BME280;3989;48.810;9.208;2022-10-04T11:38:28;99350.81;;;16.72;100.00
7888;BME280;3989;48.810;9.208;2022-10-04T11:41:11;99386.50;;;16.94;100.00
7888;BME280;3989;48.810;9.208;2022-10-04T11:44:04;99404.59;;;17.20;100.00
7888;BME280;3989;48.810;9.208;2022-10-04T11:46:43;99418.09;;;17.40;100.00
7888;BME280;3989;48.810;9.208;2022-10-04T11:49:28;99401.94;;;17.59;100.00
7888;BME280;3989;48.810;9.208;2022-10-04T11:52:17;99374.94;;;17.66;100.00
7888;BME280;3989;48.810;9.208;2022-10-04T11:55:20;99393.97;;;17.97;98.57
7888;BME280;3989;48.810;9.208;2022-10-04T11:57:53;99386.28;;;18.07;99.16
7888;BME280;3989;48.810;9.208;2022-10-04T12:00:24;99359.50;;;17.99;99.99
7888;BME280;3989;48.810;9.208;2022-10-04T12:05:58;99379.94;;;18.33;95.08
7888;BME280;3989;48.810;9.208;2022-10-04T12:08:41;99385.09;;;18.48;93.47
7888;BME280;3989;48.810;9.208;2022-10-04T12:11:29;99373.00;;;18.63;94.78
7888;BME280;3989;48.810;9.208;2022-10-04T12:14:25;99322.25;;;18.59;92.28
7888;BME280;3989;48.810;9.208;2022-10-04T12:17:38;99369.06;;;18.91;86.06
7888;BME280;3989;48.810;9.208;2022-10-04T12:20:42;99290.28;;;18.49;91.03
7888;BME280;3989;48.810;9.208;2022-10-04T12:23:42;99373.00;;;18.95;84.84
7888;BME280;3989;48.810;9.208;2022-10-04T12:26:46;99366.59;;;18.89;86.26
7888;BME280;3989;48.810;9.208;2022-10-04T12:29:35;99374.31;;;18.85;88.16
7888;BME280;3989;48.810;9.208;2022-10-04T12:32:09;99344.56;;;18.54;91.59
7888;BME280;3989;48.810;9.208;2022-10-04T12:34:47;99328.03;;;18.24;95.89
7888;BME280;3989;48.810;9.208;2022-10-04T12:37:23;99326.19;;;18.18;93.16
7888;BME280;3989;48.810;9.208;2022-10-04T12:40:13;99257.59;;;17.75;94.74
7888;BME280;3989;48.810;9.208;2022-10-04T12:42:53;99352.72;;;18.34;92.93
7888;BME280;3989;48.810;9.208;2022-10-04T12:45:29;99304.84;;;18.04;98.03
7888;BME280;3989;48.810;9.208;2022-10-04T12:48:10;99350.09;;;18.21;96.71
7888;BME280;3989;48.810;9.208;2022-10-04T12:50:52;99220.28;;;17.46;98.10
7888;BME280;3989;48.810;9.208;2022-10-04T12:53:32;99353.63;;;18.22;95.69
7888;BME280;3989;48.810;9.208;2022-10-04T12:56:11;99349.84;;;18.23;97.90
7888;BME280;3989;48.810;9.208;2022-10-04T12:58:53;99306.34;;;17.93;98.48
7888;BME280;3989;48.810;9.208;2022-10-04T13:01:30;99307.59;;;17.91;99.29
7888;BME280;3989;48.810;9.208;2022-10-04T13:04:09;99324.81;;;18.03;99.60
7888;BME280;3989;48.810;9.208;2022-10-04T13:06:51;99337.69;;;18.01;100.00
7888;BME280;3989;48.810;9.208;2022-10-04T13:09:29;99335.63;;;17.96;100.00
7888;BME280;3989;48.810;9.208;2022-10-04T13:12:07;99189.91;;;17.06;100.00
7888;BME280;3989;48.810;9.208;2022-10-04T13:15:07;99303.47;;;17.81;100.00
7888;BME280;3989;48.810;9.208;2022-10-04T13:17:44;99322.13;;;17.96;100.00
7888;BME280;3989;48.810;9.208;2022-10-04T13:20:33;99331.25;;;18.02;100.00
7888;BME280;3989;48.810;9.208;2022-10-04T13:23:07;99155.91;;;16.92;100.00
7888;BME280;3989;48.810;9.208;2022-10-04T13:25:52;99180.78;;;16.94;100.00
7888;BME280;3989;48.810;9.208;2022-10-04T13:28:24;99292.72;;;17.68;100.00
7888;BME280;3989;48.810;9.208;2022-10-04T13:31:00;99340.81;;;17.98;99.92
7888;BME280;3989;48.810;9.208;2022-10-04T13:33:38;99203.75;;;17.09;95.42
7888;BME280;3989;48.810;9.208;2022-10-04T13:36:12;99186.41;;;16.86;89.33
7888;BME280;3989;48.810;9.208;2022-10-04T13:39:09;99343.31;;;17.93;92.45
7888;BME280;3989;48.810;9.208;2022-10-04T13:41:54;99240.44;;;17.37;94.73
7888;BME280;3989;48.810;9.208;2022-10-04T13:44:41;99337.47;;;18.09;95.10
7888;BME280;3989;48.810;9.208;2022-10-04T13:47:27;99157.53;;;17.06;95.20
7888;BME280;3989;48.810;9.208;2022-10-04T13:50:14;99183.66;;;17.18;93.20
7888;BME280;3989;48.810;9.208;2022-10-04T13:52:54;99331.81;;;18.10;92.01
7888;BME280;3989;48.810;9.208;2022-10-04T13:55:47;99190.06;;;17.24;91.91
7888;BME280;3989;48.810;9.208;2022-10-04T13:58:45;99316.03;;;18.07;90.21
7888;BME280;3989;48.810;9.208;2022-10-04T14:01:30;99335.13;;;18.19;91.65
7888;BME280;3989;48.810;9.208;2022-10-04T14:04:17;99292.22;;;17.91;91.53
7888;BME280;3989;48.810;9.208;2022-10-04T14:07:12;99236.69;;;17.57;92.36
7888;BME280;3989;48.810;9.208;2022-10-04T14:10:11;99320.78;;;18.18;92.82
7888;BME280;3989;48.810;9.208;2022-10-04T14:15:49;99303.19;;;18.03;90.68
7888;BME280;3989;48.810;9.208;2022-10-04T14:18:59;99322.69;;;18.11;87.01
7888;BME280;3989;48.810;9.208;2022-10-04T14:21:48;99300.50;;;18.03;85.93
7888;BME280;3989;48.810;9.208;2022-10-04T14:24:45;99315.59;;;18.17;88.15
7888;BME280;3989;48.810;9.208;2022-10-04T14:27:39;99308.78;;;18.08;86.06
7888;BME280;3989;48.810;9.208;2022-10-04T14:30:15;99219.66;;;17.50;83.93
7888;BME280;3989;48.810;9.208;2022-10-04T14:36:03;99302.38;;;18.02;81.84
7888;BME280;3989;48.810;9.208;2022-10-04T14:38:47;99306.69;;;18.10;83.95
7888;BME280;3989;48.810;9.208;2022-10-04T14:41:49;99306.69;;;18.10;84.68
7888;BME280;3989;48.810;9.208;2022-10-04T14:44:47;99301.25;;;18.16;84.31
7888;BME280;3989;48.810;9.208;2022-10-04T14:50:26;99282.38;;;18.10;87.74
7888;BME280;3989;48.810;9.208;2022-10-04T14:53:09;99263.16;;;17.93;89.10
7888;BME280;3989;48.810;9.208;2022-10-04T14:58:49;99308.34;;;18.11;90.39
7888;BME280;3989;48.810;9.208;2022-10-04T15:01:20;99301.28;;;18.10;90.40
7888;BME280;3989;48.810;9.208;2022-10-04T15:04:02;99256.13;;;17.79;91.55
7888;BME280;3989;48.810;9.208;2022-10-04T15:06:39;99300.69;;;18.01;91.48
7888;BME280;3989;48.810;9.208;2022-10-04T15:09:30;99293.03;;;17.98;91.52
7888;BME280;3989;48.810;9.208;2022-10-04T15:15:23;99289.69;;;18.03;92.66
7888;BME280;3989;48.810;9.208;2022-10-04T15:17:59;99248.06;;;17.72;94.28
7888;BME280;3989;48.810;9.208;2022-10-04T15:20:32;99243.69;;;17.71;95.04
7888;BME280;3989;48.810;9.208;2022-10-04T15:23:09;99294.03;;;18.04;96.21
7888;BME280;3989;48.810;9.208;2022-10-04T15:25:42;99272.03;;;18.00;96.15
7888;BME280;3989;48.810;9.208;2022-10-04T15:28:37;99281.16;;;18.06;96.75
7888;BME280;3989;48.810;9.208;2022-10-04T15:31:12;99281.16;;;18.06;97.91
7888;BME280;3989;48.810;9.208;2022-10-04T15:33:52;99269.13;;;18.02;98.30
7888;BME280;3989;48.810;9.208;2022-10-04T15:36:32;99283.41;;;19.34;87.86
7888;BME280;3989;48.810;9.208;2022-10-04T15:39:07;99273.75;;;19.81;80.92
7888;BME280;3989;48.810;9.208;2022-10-04T15:41:52;99269.38;;;19.44;85.52